sensor_id;sensor_type;location;lat;lon;timestamp;temperature;humidity
52899;DHT22;38763;53.096;6.062;2022-07-30T00:02:23;16.30;99.90
52899;DHT22;38763;53.096;6.062;2022-07-30T00:04:49;16.30;99.90
52899;DHT22;38763;53.096;6.062;2022-07-30T00:07:15;16.20;99.90
52899;DHT22;38763;53.096;6.062;2022-07-30T00:09:40;16.30;99.90
52899;DHT22;38763;53.096;6.062;2022-07-30T00:12:06;16.20;99.90
52899;DHT22;38763;53.096;6.062;2022-07-30T00:14:33;16.20;99.90
52899;DHT22;38763;53.096;6.062;2022-07-30T00:17:02;16.10;99.90
52899;DHT22;38763;53.096;6.062;2022-07-30T00:19:28;16.20;99.90
52899;DHT22;38763;53.096;6.062;2022-07-30T00:21:54;16.10;99.90
52899;DHT22;38763;53.096;6.062;2022-07-30T00:24:20;16.00;99.90
52899;DHT22;38763;53.096;6.062;2022-07-30T00:26:46;15.90;99.90
52899;DHT22;38763;53.096;6.062;2022-07-30T00:29:11;15.90;99.90
52899;DHT22;38763;53.096;6.062;2022-07-30T00:31:37;15.90;99.90
52899;DHT22;38763;53.096;6.062;2022-07-30T00:34:03;15.90;99.90
52899;DHT22;38763;53.096;6.062;2022-07-30T00:36:29;15.80;99.90
52899;DHT22;38763;53.096;6.062;2022-07-30T00:38:54;15.80;99.90
52899;DHT22;38763;53.096;6.062;2022-07-30T00:41:20;15.70;99.90
52899;DHT22;38763;53.096;6.062;2022-07-30T00:43:46;15.70;99.90
52899;DHT22;38763;53.096;6.062;2022-07-30T00:46:11;15.70;99.90
52899;DHT22;38763;53.096;6.062;2022-07-30T00:48:39;15.60;99.90
52899;DHT22;38763;53.096;6.062;2022-07-30T00:51:05;15.60;99.90
52899;DHT22;38763;53.096;6.062;2022-07-30T00:53:31;15.60;99.90
52899;DHT22;38763;53.096;6.062;2022-07-30T00:55:56;15.60;99.90
52899;DHT22;38763;53.096;6.062;2022-07-30T00:58:22;15.50;99.90
52899;DHT22;38763;53.096;6.062;2022-07-30T01:00:48;15.50;99.90
52899;DHT22;38763;53.096;6.062;2022-07-30T01:03:13;15.50;99.90
52899;DHT22;38763;53.096;6.062;2022-07-30T01:05:39;15.50;99.90
52899;DHT22;38763;53.096;6.062;2022-07-30T01:08:05;15.40;99.90
52899;DHT22;38763;53.096;6.062;2022-07-30T01:10:30;15.40;99.90
52899;DHT22;38763;53.096;6.062;2022-07-30T01:12:56;15.40;99.90
52899;DHT22;38763;53.096;6.062;2022-07-30T01:15:25;15.40;99.90
52899;DHT22;38763;53.096;6.062;2022-07-30T01:17:52;15.30;99.90
52899;DHT22;38763;53.096;6.062;2022-07-30T01:20:25;15.30;99.90
52899;DHT22;38763;53.096;6.062;2022-07-30T01:23:19;15.30;99.90
52899;DHT22;38763;53.096;6.062;2022-07-30T01:26:01;15.20;99.90
52899;DHT22;38763;53.096;6.062;2022-07-30T01:28:32;15.30;99.90
52899;DHT22;38763;53.096;6.062;2022-07-30T01:30:59;15.20;99.90
52899;DHT22;38763;53.096;6.062;2022-07-30T01:33:27;15.20;99.90
52899;DHT22;38763;53.096;6.062;2022-07-30T01:35:53;15.20;99.90
52899;DHT22;38763;53.096;6.062;2022-07-30T01:38:21;15.10;99.90
52899;DHT22;38763;53.096;6.062;2022-07-30T01:40:48;15.10;99.90
52899;DHT22;38763;53.096;6.062;2022-07-30T01:43:15;15.10;99.90
52899;DHT22;38763;53.096;6.062;2022-07-30T01:45:42;15.10;99.90
52899;DHT22;38763;53.096;6.062;2022-07-30T01:48:11;15.10;99.90
52899;DHT22;38763;53.096;6.062;2022-07-30T01:50:42;15.00;99.90
52899;DHT22;38763;53.096;6.062;2022-07-30T01:53:08;14.90;99.90
52899;DHT22;38763;53.096;6.062;2022-07-30T01:55:35;14.90;99.90
52899;DHT22;38763;53.096;6.062;2022-07-30T01:58:05;14.90;99.90
52899;DHT22;38763;53.096;6.062;2022-07-30T02:00:33;14.80;99.90
52899;DHT22;38763;53.096;6.062;2022-07-30T02:02:59;14.80;99.90
52899;DHT22;38763;53.096;6.062;2022-07-30T02:05:26;14.70;99.90
52899;DHT22;38763;53.096;6.062;2022-07-30T02:07:58;14.80;99.90
52899;DHT22;38763;53.096;6.062;2022-07-30T02:12:54;14.70;99.90
52899;DHT22;38763;53.096;6.062;2022-07-30T02:15:28;14.80;99.90
52899;DHT22;38763;53.096;6.062;2022-07-30T02:18:16;14.80;99.90
52899;DHT22;38763;53.096;6.062;2022-07-30T02:20:45;14.70;99.90
52899;DHT22;38763;53.096;6.062;2022-07-30T02:23:14;14.80;99.90
52899;DHT22;38763;53.096;6.062;2022-07-30T02:25:43;14.90;99.90
52899;DHT22;38763;53.096;6.062;2022-07-30T02:28:12;14.70;99.90
52899;DHT22;38763;53.096;6.062;2022-07-30T02:30:44;14.80;99.90
52899;DHT22;38763;53.096;6.062;2022-07-30T02:33:12;14.80;99.90
52899;DHT22;38763;53.096;6.062;2022-07-30T02:35:39;14.80;99.90
52899;DHT22;38763;53.096;6.062;2022-07-30T02:38:05;14.80;99.90
52899;DHT22;38763;53.096;6.062;2022-07-30T02:40:32;14.70;99.90
52899;DHT22;38763;53.096;6.062;2022-07-30T02:42:59;14.80;99.90
52899;DHT22;38763;53.096;6.062;2022-07-30T02:45:26;14.80;99.90
52899;DHT22;38763;53.096;6.062;2022-07-30T02:47:56;14.70;99.90
52899;DHT22;38763;53.096;6.062;2022-07-30T02:50:24;14.50;99.90
52899;DHT22;38763;53.096;6.062;2022-07-30T02:52:52;14.50;99.90
52899;DHT22;38763;53.096;6.062;2022-07-30T02:55:20;14.50;99.90
52899;DHT22;38763;53.096;6.062;2022-07-30T02:57:48;14.60;99.90
52899;DHT22;38763;53.096;6.062;2022-07-30T03:00:15;14.50;99.90
52899;DHT22;38763;53.096;6.062;2022-07-30T03:02:42;14.50;99.90
52899;DHT22;38763;53.096;6.062;2022-07-30T03:05:09;14.50;99.90
52899;DHT22;38763;53.096;6.062;2022-07-30T03:07:36;14.50;99.90
52899;DHT22;38763;53.096;6.062;2022-07-30T03:10:02;14.50;99.90
52899;DHT22;38763;53.096;6.062;2022-07-30T03:12:30;14.50;99.90
52899;DHT22;38763;53.096;6.062;2022-07-30T03:14:57;14.50;99.90
52899;DHT22;38763;53.096;6.062;2022-07-30T03:17:25;14.40;99.90
52899;DHT22;38763;53.096;6.062;2022-07-30T03:19:53;14.40;99.90
52899;DHT22;38763;53.096;6.062;2022-07-30T03:22:20;14.40;99.90
52899;DHT22;38763;53.096;6.062;2022-07-30T03:24:48;14.40;99.90
52899;DHT22;38763;53.096;6.062;2022-07-30T03:27:15;14.40;99.90
52899;DHT22;38763;53.096;6.062;2022-07-30T03:29:41;14.30;99.90
52899;DHT22;38763;53.096;6.062;2022-07-30T03:32:09;14.30;99.90
52899;DHT22;38763;53.096;6.062;2022-07-30T03:34:35;14.30;99.90
52899;DHT22;38763;53.096;6.062;2022-07-30T03:37:04;14.20;99.90
52899;DHT22;38763;53.096;6.062;2022-07-30T03:39:34;14.30;99.90
52899;DHT22;38763;53.096;6.062;2022-07-30T03:42:01;14.20;99.90
52899;DHT22;38763;53.096;6.062;2022-07-30T03:44:28;14.30;99.90
52899;DHT22;38763;53.096;6.062;2022-07-30T03:46:55;14.20;99.90
52899;DHT22;38763;53.096;6.062;2022-07-30T03:49:22;14.20;99.90
52899;DHT22;38763;53.096;6.062;2022-07-30T03:51:48;14.30;99.90
52899;DHT22;38763;53.096;6.062;2022-07-30T03:54:14;14.30;99.90
52899;DHT22;38763;53.096;6.062;2022-07-30T03:56:41;14.20;99.90
52899;DHT22;38763;53.096;6.062;2022-07-30T03:59:06;14.30;99.90
52899;DHT22;38763;53.096;6.062;2022-07-30T04:01:32;14.20;99.90
52899;DHT22;38763;53.096;6.062;2022-07-30T04:04:05;14.20;99.90
52899;DHT22;38763;53.096;6.062;2022-07-30T04:06:32;14.20;99.90
52899;DHT22;38763;53.096;6.062;2022-07-30T04:09:00;14.20;99.90
52899;DHT22;38763;53.096;6.062;2022-07-30T04:11:26;14.10;99.90
52899;DHT22;38763;53.096;6.062;2022-07-30T04:13:51;14.20;99.90
52899;DHT22;38763;53.096;6.062;2022-07-30T04:18:55;14.20;99.90
52899;DHT22;38763;53.096;6.062;2022-07-30T04:21:23;14.20;99.90
52899;DHT22;38763;53.096;6.062;2022-07-30T04:23:51;14.20;99.90
52899;DHT22;38763;53.096;6.062;2022-07-30T04:26:18;14.30;99.90
52899;DHT22;38763;53.096;6.062;2022-07-30T04:28:44;14.30;99.90
52899;DHT22;38763;53.096;6.062;2022-07-30T04:31:10;14.30;99.90
52899;DHT22;38763;53.096;6.062;2022-07-30T04:33:36;14.40;99.90
52899;DHT22;38763;53.096;6.062;2022-07-30T04:36:09;14.40;99.90
52899;DHT22;38763;53.096;6.062;2022-07-30T04:38:34;14.50;99.90
52899;DHT22;38763;53.096;6.062;2022-07-30T04:41:00;14.40;99.90
52899;DHT22;38763;53.096;6.062;2022-07-30T04:43:26;14.40;99.90
52899;DHT22;38763;53.096;6.062;2022-07-30T04:45:52;14.50;99.90
52899;DHT22;38763;53.096;6.062;2022-07-30T04:48:17;14.60;99.90
52899;DHT22;38763;53.096;6.062;2022-07-30T04:50:47;14.60;99.90
52899;DHT22;38763;53.096;6.062;2022-07-30T04:53:13;14.70;99.90
52899;DHT22;38763;53.096;6.062;2022-07-30T04:55:41;14.70;99.90
52899;DHT22;38763;53.096;6.062;2022-07-30T04:58:10;14.70;99.90
52899;DHT22;38763;53.096;6.062;2022-07-30T05:00:37;14.80;99.90
52899;DHT22;38763;53.096;6.062;2022-07-30T05:03:04;14.90;99.90
52899;DHT22;38763;53.096;6.062;2022-07-30T05:05:32;14.90;99.90
52899;DHT22;38763;53.096;6.062;2022-07-30T05:07:58;14.90;99.90
52899;DHT22;38763;53.096;6.062;2022-07-30T05:10:26;14.90;99.90
52899;DHT22;38763;53.096;6.062;2022-07-30T05:12:51;15.10;99.90
52899;DHT22;38763;53.096;6.062;2022-07-30T05:15:17;15.20;99.90
52899;DHT22;38763;53.096;6.062;2022-07-30T05:17:44;15.20;99.90
52899;DHT22;38763;53.096;6.062;2022-07-30T05:20:10;15.30;99.90
52899;DHT22;38763;53.096;6.062;2022-07-30T05:22:35;15.40;99.90
52899;DHT22;38763;53.096;6.062;2022-07-30T05:25:01;15.60;99.90
52899;DHT22;38763;53.096;6.062;2022-07-30T05:27:27;15.50;99.90
52899;DHT22;38763;53.096;6.062;2022-07-30T05:29:52;15.70;99.90
52899;DHT22;38763;53.096;6.062;2022-07-30T05:32:18;15.80;99.90
52899;DHT22;38763;53.096;6.062;2022-07-30T05:34:44;15.80;99.90
52899;DHT22;38763;53.096;6.062;2022-07-30T05:37:09;16.00;99.90
52899;DHT22;38763;53.096;6.062;2022-07-30T05:39:35;16.10;99.90
52899;DHT22;38763;53.096;6.062;2022-07-30T05:42:00;16.20;99.90
52899;DHT22;38763;53.096;6.062;2022-07-30T05:44:26;16.40;99.90
52899;DHT22;38763;53.096;6.062;2022-07-30T05:46:52;16.50;99.90
52899;DHT22;38763;53.096;6.062;2022-07-30T05:49:17;16.50;99.90
52899;DHT22;38763;53.096;6.062;2022-07-30T05:51:43;16.60;99.90
52899;DHT22;38763;53.096;6.062;2022-07-30T05:54:09;16.70;99.90
52899;DHT22;38763;53.096;6.062;2022-07-30T05:56:34;16.80;99.90
52899;DHT22;38763;53.096;6.062;2022-07-30T05:59:01;16.80;99.90
52899;DHT22;38763;53.096;6.062;2022-07-30T06:01:26;17.00;99.90
52899;DHT22;38763;53.096;6.062;2022-07-30T06:03:52;17.10;99.90
52899;DHT22;38763;53.096;6.062;2022-07-30T06:06:18;17.10;99.90
52899;DHT22;38763;53.096;6.062;2022-07-30T06:08:43;17.20;99.90
52899;DHT22;38763;53.096;6.062;2022-07-30T06:11:09;17.30;99.90
52899;DHT22;38763;53.096;6.062;2022-07-30T06:13:35;17.30;99.90
52899;DHT22;38763;53.096;6.062;2022-07-30T06:16:02;17.30;99.90
52899;DHT22;38763;53.096;6.062;2022-07-30T06:18:28;17.50;99.90
52899;DHT22;38763;53.096;6.062;2022-07-30T06:20:54;17.50;99.90
52899;DHT22;38763;53.096;6.062;2022-07-30T06:23:20;17.50;99.90
52899;DHT22;38763;53.096;6.062;2022-07-30T06:25:46;17.70;99.90
52899;DHT22;38763;53.096;6.062;2022-07-30T06:28:13;17.70;99.90
52899;DHT22;38763;53.096;6.062;2022-07-30T06:30:39;17.70;99.90
52899;DHT22;38763;53.096;6.062;2022-07-30T06:33:05;17.80;99.90
52899;DHT22;38763;53.096;6.062;2022-07-30T06:35:31;17.90;99.90
52899;DHT22;38763;53.096;6.062;2022-07-30T06:37:58;17.90;99.90
52899;DHT22;38763;53.096;6.062;2022-07-30T06:40:24;18.10;99.90
52899;DHT22;38763;53.096;6.062;2022-07-30T06:42:50;18.20;99.90
52899;DHT22;38763;53.096;6.062;2022-07-30T06:45:15;18.40;99.90
52899;DHT22;38763;53.096;6.062;2022-07-30T06:47:41;18.40;99.90
52899;DHT22;38763;53.096;6.062;2022-07-30T06:50:07;18.50;99.90
52899;DHT22;38763;53.096;6.062;2022-07-30T06:52:33;18.60;99.90
52899;DHT22;38763;53.096;6.062;2022-07-30T06:54:59;18.70;99.90
52899;DHT22;38763;53.096;6.062;2022-07-30T06:57:24;18.70;99.90
52899;DHT22;38763;53.096;6.062;2022-07-30T06:59:50;18.70;99.90
52899;DHT22;38763;53.096;6.062;2022-07-30T07:02:16;18.80;99.90
52899;DHT22;38763;53.096;6.062;2022-07-30T07:04:41;18.80;99.90
52899;DHT22;38763;53.096;6.062;2022-07-30T07:07:07;18.80;99.90
52899;DHT22;38763;53.096;6.062;2022-07-30T07:09:32;19.00;99.90
52899;DHT22;38763;53.096;6.062;2022-07-30T07:11:58;19.00;99.90
52899;DHT22;38763;53.096;6.062;2022-07-30T07:14:24;19.00;99.90
52899;DHT22;38763;53.096;6.062;2022-07-30T07:16:49;18.80;99.90
52899;DHT22;38763;53.096;6.062;2022-07-30T07:19:15;18.80;99.90
52899;DHT22;38763;53.096;6.062;2022-07-30T07:21:41;19.10;99.90
52899;DHT22;38763;53.096;6.062;2022-07-30T07:24:07;19.00;99.90
52899;DHT22;38763;53.096;6.062;2022-07-30T07:26:33;19.20;99.90
52899;DHT22;38763;53.096;6.062;2022-07-30T07:29:00;19.30;99.90
52899;DHT22;38763;53.096;6.062;2022-07-30T07:31:25;19.40;99.90
52899;DHT22;38763;53.096;6.062;2022-07-30T07:33:52;19.40;99.90
52899;DHT22;38763;53.096;6.062;2022-07-30T07:36:22;19.40;99.90
52899;DHT22;38763;53.096;6.062;2022-07-30T07:38:48;19.30;99.90
52899;DHT22;38763;53.096;6.062;2022-07-30T07:41:13;19.60;99.90
52899;DHT22;38763;53.096;6.062;2022-07-30T07:43:39;20.80;99.90
52899;DHT22;38763;53.096;6.062;2022-07-30T07:46:05;21.00;99.90
52899;DHT22;38763;53.096;6.062;2022-07-30T07:48:31;21.30;99.90
52899;DHT22;38763;53.096;6.062;2022-07-30T07:50:58;21.10;99.90
52899;DHT22;38763;53.096;6.062;2022-07-30T07:53:24;20.50;99.90
52899;DHT22;38763;53.096;6.062;2022-07-30T07:55:49;20.40;99.90
52899;DHT22;38763;53.096;6.062;2022-07-30T07:58:15;20.70;99.90
52899;DHT22;38763;53.096;6.062;2022-07-30T08:00:41;21.20;99.90
52899;DHT22;38763;53.096;6.062;2022-07-30T08:03:07;21.80;99.90
52899;DHT22;38763;53.096;6.062;2022-07-30T08:05:32;22.80;99.90
52899;DHT22;38763;53.096;6.062;2022-07-30T08:07:58;23.30;99.90
52899;DHT22;38763;53.096;6.062;2022-07-30T08:10:24;24.00;99.90
52899;DHT22;38763;53.096;6.062;2022-07-30T08:12:50;24.00;99.90
52899;DHT22;38763;53.096;6.062;2022-07-30T08:15:16;23.30;99.90
52899;DHT22;38763;53.096;6.062;2022-07-30T08:17:45;22.80;99.90
52899;DHT22;38763;53.096;6.062;2022-07-30T08:20:13;22.60;99.90
52899;DHT22;38763;53.096;6.062;2022-07-30T08:22:39;23.20;99.90
52899;DHT22;38763;53.096;6.062;2022-07-30T08:25:06;24.00;99.90
52899;DHT22;38763;53.096;6.062;2022-07-30T08:27:32;24.20;99.90
52899;DHT22;38763;53.096;6.062;2022-07-30T08:29:57;25.20;99.90
52899;DHT22;38763;53.096;6.062;2022-07-30T08:32:23;25.10;99.90
52899;DHT22;38763;53.096;6.062;2022-07-30T08:34:48;25.70;99.90
52899;DHT22;38763;53.096;6.062;2022-07-30T08:37:14;25.30;99.90
52899;DHT22;38763;53.096;6.062;2022-07-30T08:39:40;25.60;99.90
52899;DHT22;38763;53.096;6.062;2022-07-30T08:42:06;24.70;99.90
52899;DHT22;38763;53.096;6.062;2022-07-30T08:44:32;24.60;99.90
52899;DHT22;38763;53.096;6.062;2022-07-30T08:47:00;25.00;99.90
52899;DHT22;38763;53.096;6.062;2022-07-30T08:49:27;24.90;99.90
52899;DHT22;38763;53.096;6.062;2022-07-30T08:51:53;25.20;99.90
52899;DHT22;38763;53.096;6.062;2022-07-30T08:54:20;24.60;99.90
52899;DHT22;38763;53.096;6.062;2022-07-30T08:56:46;24.60;99.90
52899;DHT22;38763;53.096;6.062;2022-07-30T08:59:14;24.50;99.90
52899;DHT22;38763;53.096;6.062;2022-07-30T09:01:40;25.50;99.90
52899;DHT22;38763;53.096;6.062;2022-07-30T09:04:06;25.50;99.90
52899;DHT22;38763;53.096;6.062;2022-07-30T09:06:31;25.60;99.90
52899;DHT22;38763;53.096;6.062;2022-07-30T09:08:57;25.70;99.90
52899;DHT22;38763;53.096;6.062;2022-07-30T09:11:22;24.90;99.90
52899;DHT22;38763;53.096;6.062;2022-07-30T09:13:48;24.50;99.90
52899;DHT22;38763;53.096;6.062;2022-07-30T09:16:23;24.70;99.90
52899;DHT22;38763;53.096;6.062;2022-07-30T09:18:49;25.00;99.90
52899;DHT22;38763;53.096;6.062;2022-07-30T09:23:59;25.50;99.90
52899;DHT22;38763;53.096;6.062;2022-07-30T09:26:25;25.30;99.90
52899;DHT22;38763;53.096;6.062;2022-07-30T09:28:51;25.60;99.90
52899;DHT22;38763;53.096;6.062;2022-07-30T09:31:17;26.10;99.90
52899;DHT22;38763;53.096;6.062;2022-07-30T09:33:45;26.40;99.90
52899;DHT22;38763;53.096;6.062;2022-07-30T09:36:13;26.40;99.90
52899;DHT22;38763;53.096;6.062;2022-07-30T09:38:47;26.00;99.90
52899;DHT22;38763;53.096;6.062;2022-07-30T09:41:16;25.00;99.90
52899;DHT22;38763;53.096;6.062;2022-07-30T09:43:51;24.60;99.90
52899;DHT22;38763;53.096;6.062;2022-07-30T09:46:17;25.40;99.90
52899;DHT22;38763;53.096;6.062;2022-07-30T09:48:43;25.00;99.90
52899;DHT22;38763;53.096;6.062;2022-07-30T09:51:12;25.10;99.90
52899;DHT22;38763;53.096;6.062;2022-07-30T09:53:56;25.00;99.90
52899;DHT22;38763;53.096;6.062;2022-07-30T09:56:25;25.80;99.90
52899;DHT22;38763;53.096;6.062;2022-07-30T09:58:51;25.90;99.90
52899;DHT22;38763;53.096;6.062;2022-07-30T10:01:17;26.30;99.90
52899;DHT22;38763;53.096;6.062;2022-07-30T10:03:42;26.80;99.90
52899;DHT22;38763;53.096;6.062;2022-07-30T10:06:10;26.20;99.90
52899;DHT22;38763;53.096;6.062;2022-07-30T10:08:42;26.30;99.90
52899;DHT22;38763;53.096;6.062;2022-07-30T10:11:14;26.50;99.90
52899;DHT22;38763;53.096;6.062;2022-07-30T10:13:41;26.90;99.90
52899;DHT22;38763;53.096;6.062;2022-07-30T10:16:08;26.60;99.90
52899;DHT22;38763;53.096;6.062;2022-07-30T10:18:37;25.60;99.90
52899;DHT22;38763;53.096;6.062;2022-07-30T10:21:07;25.60;99.90
52899;DHT22;38763;53.096;6.062;2022-07-30T10:23:33;26.30;99.90
52899;DHT22;38763;53.096;6.062;2022-07-30T10:25:59;25.90;99.90
52899;DHT22;38763;53.096;6.062;2022-07-30T10:28:27;26.00;99.90
52899;DHT22;38763;53.096;6.062;2022-07-30T10:30:55;26.30;99.90
52899;DHT22;38763;53.096;6.062;2022-07-30T10:33:21;25.80;99.90
52899;DHT22;38763;53.096;6.062;2022-07-30T10:35:48;25.60;99.90
52899;DHT22;38763;53.096;6.062;2022-07-30T10:38:15;25.10;99.90
52899;DHT22;38763;53.096;6.062;2022-07-30T10:40:51;25.20;99.90
52899;DHT22;38763;53.096;6.062;2022-07-30T10:43:39;25.30;99.90
52899;DHT22;38763;53.096;6.062;2022-07-30T10:49:17;25.30;99.90
52899;DHT22;38763;53.096;6.062;2022-07-30T10:51:48;25.60;99.90
52899;DHT22;38763;53.096;6.062;2022-07-30T11:02:23;26.10;99.90
52899;DHT22;38763;53.096;6.062;2022-07-30T11:04:49;26.40;99.90
52899;DHT22;38763;53.096;6.062;2022-07-30T11:09:53;26.70;99.90
52899;DHT22;38763;53.096;6.062;2022-07-30T11:15:09;26.80;99.90
52899;DHT22;38763;53.096;6.062;2022-07-30T11:20:31;26.00;99.90
52899;DHT22;38763;53.096;6.062;2022-07-30T11:25:44;24.90;99.90
52899;DHT22;38763;53.096;6.062;2022-07-30T11:31:01;23.90;99.90
52899;DHT22;38763;53.096;6.062;2022-07-30T11:33:26;24.00;99.90
52899;DHT22;38763;53.096;6.062;2022-07-30T11:36:10;24.20;99.90
52899;DHT22;38763;53.096;6.062;2022-07-30T11:38:57;24.30;99.90
52899;DHT22;38763;53.096;6.062;2022-07-30T11:41:23;24.00;99.90
52899;DHT22;38763;53.096;6.062;2022-07-30T11:44:25;24.30;99.90
52899;DHT22;38763;53.096;6.062;2022-07-30T11:46:51;24.70;99.90
52899;DHT22;38763;53.096;6.062;2022-07-30T11:49:17;24.30;99.90
52899;DHT22;38763;53.096;6.062;2022-07-30T11:51:44;24.60;99.90
52899;DHT22;38763;53.096;6.062;2022-07-30T11:54:11;24.90;99.90
52899;DHT22;38763;53.096;6.062;2022-07-30T11:56:55;24.40;99.90
52899;DHT22;38763;53.096;6.062;2022-07-30T11:59:24;24.40;99.90
52899;DHT22;38763;53.096;6.062;2022-07-30T12:01:51;24.70;99.90
52899;DHT22;38763;53.096;6.062;2022-07-30T12:04:18;24.70;99.90
52899;DHT22;38763;53.096;6.062;2022-07-30T12:06:47;24.70;99.90
52899;DHT22;38763;53.096;6.062;2022-07-30T12:09:25;24.90;99.90
52899;DHT22;38763;53.096;6.062;2022-07-30T12:11:55;24.60;99.60
52899;DHT22;38763;53.096;6.062;2022-07-30T12:14:21;24.70;99.60
52899;DHT22;38763;53.096;6.062;2022-07-30T12:16:51;24.40;99.90
52899;DHT22;38763;53.096;6.062;2022-07-30T12:19:17;24.70;99.70
52899;DHT22;38763;53.096;6.062;2022-07-30T12:21:43;24.80;99.60
52899;DHT22;38763;53.096;6.062;2022-07-30T12:24:09;24.70;98.30
52899;DHT22;38763;53.096;6.062;2022-07-30T12:26:36;24.80;99.00
52899;DHT22;38763;53.096;6.062;2022-07-30T12:29:06;24.20;99.90
52899;DHT22;38763;53.096;6.062;2022-07-30T12:31:34;24.10;99.90
52899;DHT22;38763;53.096;6.062;2022-07-30T12:34:00;24.30;99.90
52899;DHT22;38763;53.096;6.062;2022-07-30T12:36:33;24.30;99.90
52899;DHT22;38763;53.096;6.062;2022-07-30T12:39:01;24.10;99.90
52899;DHT22;38763;53.096;6.062;2022-07-30T12:41:49;24.00;99.90
52899;DHT22;38763;53.096;6.062;2022-07-30T12:44:37;24.20;99.90
52899;DHT22;38763;53.096;6.062;2022-07-30T12:49:48;24.00;99.40
52899;DHT22;38763;53.096;6.062;2022-07-30T12:55:08;23.70;99.60
52899;DHT22;38763;53.096;6.062;2022-07-30T12:57:55;23.80;99.90
52899;DHT22;38763;53.096;6.062;2022-07-30T13:00:22;23.60;99.90
52899;DHT22;38763;53.096;6.062;2022-07-30T13:02:48;23.70;99.90
52899;DHT22;38763;53.096;6.062;2022-07-30T13:05:13;23.70;99.50
52899;DHT22;38763;53.096;6.062;2022-07-30T13:07:56;23.90;99.90
52899;DHT22;38763;53.096;6.062;2022-07-30T13:10:22;23.80;99.10
52899;DHT22;38763;53.096;6.062;2022-07-30T13:12:48;23.80;99.20
52899;DHT22;38763;53.096;6.062;2022-07-30T13:15:21;23.90;99.80
52899;DHT22;38763;53.096;6.062;2022-07-30T13:17:47;23.60;99.80
52899;DHT22;38763;53.096;6.062;2022-07-30T13:20:17;23.60;99.90
52899;DHT22;38763;53.096;6.062;2022-07-30T13:22:43;23.80;99.90
52899;DHT22;38763;53.096;6.062;2022-07-30T13:25:09;23.90;99.90
52899;DHT22;38763;53.096;6.062;2022-07-30T13:27:36;23.90;99.90
52899;DHT22;38763;53.096;6.062;2022-07-30T13:30:02;23.70;99.70
52899;DHT22;38763;53.096;6.062;2022-07-30T13:32:28;23.50;99.90
52899;DHT22;38763;53.096;6.062;2022-07-30T13:34:55;23.50;99.90
52899;DHT22;38763;53.096;6.062;2022-07-30T13:37:21;23.40;99.90
52899;DHT22;38763;53.096;6.062;2022-07-30T13:39:47;23.20;99.90
52899;DHT22;38763;53.096;6.062;2022-07-30T13:42:13;23.20;99.90
52899;DHT22;38763;53.096;6.062;2022-07-30T13:44:39;23.20;99.90
52899;DHT22;38763;53.096;6.062;2022-07-30T13:47:04;23.00;99.80
52899;DHT22;38763;53.096;6.062;2022-07-30T13:49:33;23.20;99.40
52899;DHT22;38763;53.096;6.062;2022-07-30T13:52:00;23.10;99.50
52899;DHT22;38763;53.096;6.062;2022-07-30T13:54:26;23.20;99.80
52899;DHT22;38763;53.096;6.062;2022-07-30T13:56:53;23.20;98.40
52899;DHT22;38763;53.096;6.062;2022-07-30T13:59:19;23.10;98.90
52899;DHT22;38763;53.096;6.062;2022-07-30T14:01:44;23.20;99.10
52899;DHT22;38763;53.096;6.062;2022-07-30T14:04:10;23.30;98.70
52899;DHT22;38763;53.096;6.062;2022-07-30T14:06:36;23.30;99.00
52899;DHT22;38763;53.096;6.062;2022-07-30T14:09:01;23.60;99.10
52899;DHT22;38763;53.096;6.062;2022-07-30T14:11:27;23.70;98.80
52899;DHT22;38763;53.096;6.062;2022-07-30T14:13:52;23.70;99.50
52899;DHT22;38763;53.096;6.062;2022-07-30T14:16:18;23.30;99.50
52899;DHT22;38763;53.096;6.062;2022-07-30T14:18:44;23.60;99.90
52899;DHT22;38763;53.096;6.062;2022-07-30T14:21:10;23.30;99.90
52899;DHT22;38763;53.096;6.062;2022-07-30T14:23:35;23.20;99.50
52899;DHT22;38763;53.096;6.062;2022-07-30T14:26:01;23.00;99.90
52899;DHT22;38763;53.096;6.062;2022-07-30T14:28:26;22.80;99.90
52899;DHT22;38763;53.096;6.062;2022-07-30T14:30:52;22.90;99.90
52899;DHT22;38763;53.096;6.062;2022-07-30T14:33:18;23.00;99.90
52899;DHT22;38763;53.096;6.062;2022-07-30T14:35:43;22.70;99.90
52899;DHT22;38763;53.096;6.062;2022-07-30T14:38:09;22.90;99.90
52899;DHT22;38763;53.096;6.062;2022-07-30T14:40:34;23.00;99.90
52899;DHT22;38763;53.096;6.062;2022-07-30T14:43:00;23.20;99.90
52899;DHT22;38763;53.096;6.062;2022-07-30T14:45:26;23.00;99.90
52899;DHT22;38763;53.096;6.062;2022-07-30T14:47:51;22.80;99.90
52899;DHT22;38763;53.096;6.062;2022-07-30T14:50:17;22.70;99.90
52899;DHT22;38763;53.096;6.062;2022-07-30T14:52:42;22.70;99.90
52899;DHT22;38763;53.096;6.062;2022-07-30T14:55:09;22.70;99.90
52899;DHT22;38763;53.096;6.062;2022-07-30T14:57:34;23.10;99.90
52899;DHT22;38763;53.096;6.062;2022-07-30T15:00:01;22.90;99.90
52899;DHT22;38763;53.096;6.062;2022-07-30T15:02:26;22.90;99.90
52899;DHT22;38763;53.096;6.062;2022-07-30T15:04:52;22.80;99.90
52899;DHT22;38763;53.096;6.062;2022-07-30T15:07:17;22.80;99.90
52899;DHT22;38763;53.096;6.062;2022-07-30T15:09:43;22.80;99.90
52899;DHT22;38763;53.096;6.062;2022-07-30T15:12:09;22.70;99.90
52899;DHT22;38763;53.096;6.062;2022-07-30T15:14:36;22.80;99.90
52899;DHT22;38763;53.096;6.062;2022-07-30T15:17:02;22.80;99.90
52899;DHT22;38763;53.096;6.062;2022-07-30T15:19:28;22.80;99.90
52899;DHT22;38763;53.096;6.062;2022-07-30T15:21:53;22.80;99.90
52899;DHT22;38763;53.096;6.062;2022-07-30T15:24:19;22.80;99.90
52899;DHT22;38763;53.096;6.062;2022-07-30T15:26:44;22.80;99.90
52899;DHT22;38763;53.096;6.062;2022-07-30T15:29:10;22.90;99.90
52899;DHT22;38763;53.096;6.062;2022-07-30T15:31:36;23.00;99.90
52899;DHT22;38763;53.096;6.062;2022-07-30T15:34:01;22.90;99.90
52899;DHT22;38763;53.096;6.062;2022-07-30T15:36:27;23.10;99.90
52899;DHT22;38763;53.096;6.062;2022-07-30T15:38:53;23.00;99.90
52899;DHT22;38763;53.096;6.062;2022-07-30T15:41:18;23.20;99.90
52899;DHT22;38763;53.096;6.062;2022-07-30T15:43:47;23.30;99.90
52899;DHT22;38763;53.096;6.062;2022-07-30T15:46:12;23.00;99.90
52899;DHT22;38763;53.096;6.062;2022-07-30T15:48:38;23.00;99.90
52899;DHT22;38763;53.096;6.062;2022-07-30T15:51:04;22.80;99.90
52899;DHT22;38763;53.096;6.062;2022-07-30T15:53:30;23.00;99.90
52899;DHT22;38763;53.096;6.062;2022-07-30T15:55:57;22.90;99.90
52899;DHT22;38763;53.096;6.062;2022-07-30T15:58:22;22.80;99.90
52899;DHT22;38763;53.096;6.062;2022-07-30T16:00:48;22.80;99.90
52899;DHT22;38763;53.096;6.062;2022-07-30T16:03:14;22.90;99.90
52899;DHT22;38763;53.096;6.062;2022-07-30T16:05:39;22.90;99.90
52899;DHT22;38763;53.096;6.062;2022-07-30T16:08:05;23.10;99.90
52899;DHT22;38763;53.096;6.062;2022-07-30T16:10:31;23.20;99.90